sensor_id;sensor_type;location;lat;lon;timestamp;P1;durP1;ratioP1;P2;durP2;ratioP2
2644;SDS011;15377;48.540;9.268;2022-12-10T00:01:02;71.65;;;39.50;;
2644;SDS011;15377;48.540;9.268;2022-12-10T00:03:32;73.53;;;37.58;;
2644;SDS011;15377;48.540;9.268;2022-12-10T00:06:01;81.00;;;40.37;;
2644;SDS011;15377;48.540;9.268;2022-12-10T00:08:28;74.70;;;37.95;;
2644;SDS011;15377;48.540;9.268;2022-12-10T00:10:53;88.03;;;40.33;;
2644;SDS011;15377;48.540;9.268;2022-12-10T00:13:19;79.67;;;39.00;;
2644;SDS011;15377;48.540;9.268;2022-12-10T00:15:44;76.50;;;38.47;;
2644;SDS011;15377;48.540;9.268;2022-12-10T00:18:09;77.70;;;40.00;;
2644;SDS011;15377;48.540;9.268;2022-12-10T00:20:35;77.50;;;37.20;;
2644;SDS011;15377;48.540;9.268;2022-12-10T00:23:01;88.15;;;41.25;;
2644;SDS011;15377;48.540;9.268;2022-12-10T00:25:27;71.40;;;37.67;;
2644;SDS011;15377;48.540;9.268;2022-12-10T00:27:52;77.20;;;37.07;;
2644;SDS011;15377;48.540;9.268;2022-12-10T00:30:17;79.00;;;41.33;;
2644;SDS011;15377;48.540;9.268;2022-12-10T00:32:43;82.10;;;39.73;;
2644;SDS011;15377;48.540;9.268;2022-12-10T00:35:08;85.40;;;39.60;;
2644;SDS011;15377;48.540;9.268;2022-12-10T00:37:33;83.07;;;37.67;;
2644;SDS011;15377;48.540;9.268;2022-12-10T00:39:59;86.70;;;41.10;;
2644;SDS011;15377;48.540;9.268;2022-12-10T00:42:24;80.67;;;38.40;;
2644;SDS011;15377;48.540;9.268;2022-12-10T00:44:50;91.37;;;41.07;;
2644;SDS011;15377;48.540;9.268;2022-12-10T00:47:15;74.27;;;39.87;;
2644;SDS011;15377;48.540;9.268;2022-12-10T00:49:40;71.60;;;38.37;;
2644;SDS011;15377;48.540;9.268;2022-12-10T00:52:05;69.00;;;37.00;;
2644;SDS011;15377;48.540;9.268;2022-12-10T00:54:31;74.43;;;37.53;;
2644;SDS011;15377;48.540;9.268;2022-12-10T00:56:56;67.87;;;37.87;;
2644;SDS011;15377;48.540;9.268;2022-12-10T00:59:21;71.23;;;37.20;;
2644;SDS011;15377;48.540;9.268;2022-12-10T01:01:47;63.23;;;36.37;;
2644;SDS011;15377;48.540;9.268;2022-12-10T01:04:14;86.73;;;40.47;;
2644;SDS011;15377;48.540;9.268;2022-12-10T01:06:50;78.75;;;39.30;;
2644;SDS011;15377;48.540;9.268;2022-12-10T01:09:18;80.25;;;38.55;;
2644;SDS011;15377;48.540;9.268;2022-12-10T01:11:46;71.00;;;37.95;;
2644;SDS011;15377;48.540;9.268;2022-12-10T01:14:15;72.20;;;38.33;;
2644;SDS011;15377;48.540;9.268;2022-12-10T01:16:45;77.38;;;37.28;;
2644;SDS011;15377;48.540;9.268;2022-12-10T01:19:10;73.10;;;38.03;;
2644;SDS011;15377;48.540;9.268;2022-12-10T01:21:36;78.23;;;40.03;;
2644;SDS011;15377;48.540;9.268;2022-12-10T01:24:02;74.47;;;37.07;;
2644;SDS011;15377;48.540;9.268;2022-12-10T01:26:29;81.17;;;38.53;;
2644;SDS011;15377;48.540;9.268;2022-12-10T01:28:56;79.18;;;38.80;;
2644;SDS011;15377;48.540;9.268;2022-12-10T01:31:26;78.88;;;34.55;;
2644;SDS011;15377;48.540;9.268;2022-12-10T01:33:53;85.32;;;41.38;;
2644;SDS011;15377;48.540;9.268;2022-12-10T01:36:20;80.33;;;40.73;;
2644;SDS011;15377;48.540;9.268;2022-12-10T01:38:51;80.13;;;38.50;;
2644;SDS011;15377;48.540;9.268;2022-12-10T01:41:21;76.93;;;37.03;;
2644;SDS011;15377;48.540;9.268;2022-12-10T01:46:51;81.00;;;37.00;;
2644;SDS011;15377;48.540;9.268;2022-12-10T01:49:19;80.47;;;38.05;;
2644;SDS011;15377;48.540;9.268;2022-12-10T01:51:51;79.30;;;37.80;;
2644;SDS011;15377;48.540;9.268;2022-12-10T01:54:20;73.68;;;37.00;;
2644;SDS011;15377;48.540;9.268;2022-12-10T01:56:50;74.35;;;37.95;;
2644;SDS011;15377;48.540;9.268;2022-12-10T01:59:21;79.40;;;37.67;;
2644;SDS011;15377;48.540;9.268;2022-12-10T02:04:41;81.30;;;38.45;;
2644;SDS011;15377;48.540;9.268;2022-12-10T02:12:46;83.45;;;37.63;;
2644;SDS011;15377;48.540;9.268;2022-12-10T02:15:19;90.88;;;41.22;;
2644;SDS011;15377;48.540;9.268;2022-12-10T02:17:53;92.95;;;40.75;;
2644;SDS011;15377;48.540;9.268;2022-12-10T02:20:32;90.55;;;40.22;;
2644;SDS011;15377;48.540;9.268;2022-12-10T02:23:11;75.75;;;38.35;;
2644;SDS011;15377;48.540;9.268;2022-12-10T02:28:37;75.88;;;38.00;;
2644;SDS011;15377;48.540;9.268;2022-12-10T02:31:13;90.97;;;37.00;;
2644;SDS011;15377;48.540;9.268;2022-12-10T02:33:43;76.20;;;38.60;;
2644;SDS011;15377;48.540;9.268;2022-12-10T02:36:13;83.80;;;37.40;;
2644;SDS011;15377;48.540;9.268;2022-12-10T02:38:40;91.88;;;38.65;;
2644;SDS011;15377;48.540;9.268;2022-12-10T02:41:09;90.72;;;41.10;;
2644;SDS011;15377;48.540;9.268;2022-12-10T02:43:40;86.60;;;39.05;;
2644;SDS011;15377;48.540;9.268;2022-12-10T02:46:08;86.28;;;40.67;;
2644;SDS011;15377;48.540;9.268;2022-12-10T02:48:34;95.80;;;42.67;;
2644;SDS011;15377;48.540;9.268;2022-12-10T02:51:01;74.30;;;40.60;;
2644;SDS011;15377;48.540;9.268;2022-12-10T02:53:26;87.33;;;41.97;;
2644;SDS011;15377;48.540;9.268;2022-12-10T03:00:57;84.88;;;40.70;;
2644;SDS011;15377;48.540;9.268;2022-12-10T03:06:12;87.53;;;41.28;;
2644;SDS011;15377;48.540;9.268;2022-12-10T03:11:16;87.40;;;41.10;;
2644;SDS011;15377;48.540;9.268;2022-12-10T03:16:26;71.10;;;36.80;;
2644;SDS011;15377;48.540;9.268;2022-12-10T03:18:57;80.45;;;40.03;;
2644;SDS011;15377;48.540;9.268;2022-12-10T03:21:26;89.80;;;39.35;;
2644;SDS011;15377;48.540;9.268;2022-12-10T03:23:53;80.53;;;40.58;;
2644;SDS011;15377;48.540;9.268;2022-12-10T03:26:19;74.03;;;38.20;;
2644;SDS011;15377;48.540;9.268;2022-12-10T03:28:48;68.85;;;37.40;;
2644;SDS011;15377;48.540;9.268;2022-12-10T03:31:16;74.55;;;38.00;;
2644;SDS011;15377;48.540;9.268;2022-12-10T03:33:43;71.63;;;37.58;;
2644;SDS011;15377;48.540;9.268;2022-12-10T03:36:10;75.80;;;38.30;;
2644;SDS011;15377;48.540;9.268;2022-12-10T03:38:36;69.85;;;34.83;;
2644;SDS011;15377;48.540;9.268;2022-12-10T03:41:03;68.15;;;35.65;;
2644;SDS011;15377;48.540;9.268;2022-12-10T03:43:28;73.07;;;37.30;;
2644;SDS011;15377;48.540;9.268;2022-12-10T03:45:54;68.13;;;35.57;;
2644;SDS011;15377;48.540;9.268;2022-12-10T03:48:19;69.37;;;36.60;;
2644;SDS011;15377;48.540;9.268;2022-12-10T03:50:44;62.83;;;34.60;;
2644;SDS011;15377;48.540;9.268;2022-12-10T03:53:10;57.13;;;36.17;;
2644;SDS011;15377;48.540;9.268;2022-12-10T03:55:35;59.47;;;33.40;;
2644;SDS011;15377;48.540;9.268;2022-12-10T03:58:01;56.90;;;34.47;;
2644;SDS011;15377;48.540;9.268;2022-12-10T04:00:26;68.60;;;38.43;;
2644;SDS011;15377;48.540;9.268;2022-12-10T04:02:51;65.90;;;35.60;;
2644;SDS011;15377;48.540;9.268;2022-12-10T04:05:17;66.60;;;37.13;;
2644;SDS011;15377;48.540;9.268;2022-12-10T04:07:42;66.40;;;36.63;;
2644;SDS011;15377;48.540;9.268;2022-12-10T04:10:07;68.17;;;35.87;;
2644;SDS011;15377;48.540;9.268;2022-12-10T04:12:33;61.03;;;34.30;;
2644;SDS011;15377;48.540;9.268;2022-12-10T04:14:59;60.00;;;34.83;;
2644;SDS011;15377;48.540;9.268;2022-12-10T04:17:43;66.05;;;35.65;;
2644;SDS011;15377;48.540;9.268;2022-12-10T04:20:08;59.70;;;33.77;;
2644;SDS011;15377;48.540;9.268;2022-12-10T04:22:52;57.10;;;33.58;;
2644;SDS011;15377;48.540;9.268;2022-12-10T04:25:36;55.78;;;33.97;;
2644;SDS011;15377;48.540;9.268;2022-12-10T04:28:20;60.83;;;33.80;;
2644;SDS011;15377;48.540;9.268;2022-12-10T04:30:46;65.67;;;34.47;;
2644;SDS011;15377;48.540;9.268;2022-12-10T04:33:11;59.20;;;34.40;;
2644;SDS011;15377;48.540;9.268;2022-12-10T04:35:36;64.90;;;35.77;;
2644;SDS011;15377;48.540;9.268;2022-12-10T04:38:01;63.00;;;34.77;;
2644;SDS011;15377;48.540;9.268;2022-12-10T04:40:27;67.33;;;34.23;;
2644;SDS011;15377;48.540;9.268;2022-12-10T04:42:52;59.07;;;31.63;;
2644;SDS011;15377;48.540;9.268;2022-12-10T04:45:17;60.67;;;33.63;;
2644;SDS011;15377;48.540;9.268;2022-12-10T04:47:43;64.47;;;35.83;;
2644;SDS011;15377;48.540;9.268;2022-12-10T04:50:08;57.00;;;34.70;;
2644;SDS011;15377;48.540;9.268;2022-12-10T04:52:33;65.83;;;35.87;;
2644;SDS011;15377;48.540;9.268;2022-12-10T04:54:59;67.67;;;35.77;;
2644;SDS011;15377;48.540;9.268;2022-12-10T04:57:24;66.00;;;33.27;;
2644;SDS011;15377;48.540;9.268;2022-12-10T04:59:49;68.33;;;33.10;;
2644;SDS011;15377;48.540;9.268;2022-12-10T05:02:15;62.70;;;35.80;;
2644;SDS011;15377;48.540;9.268;2022-12-10T05:04:40;65.40;;;34.83;;
2644;SDS011;15377;48.540;9.268;2022-12-10T05:07:05;58.33;;;33.50;;
2644;SDS011;15377;48.540;9.268;2022-12-10T05:09:31;59.87;;;32.03;;
2644;SDS011;15377;48.540;9.268;2022-12-10T05:11:56;54.10;;;31.27;;
2644;SDS011;15377;48.540;9.268;2022-12-10T05:14:21;64.53;;;33.30;;
2644;SDS011;15377;48.540;9.268;2022-12-10T05:16:48;58.57;;;32.37;;
2644;SDS011;15377;48.540;9.268;2022-12-10T05:19:14;62.85;;;32.78;;
2644;SDS011;15377;48.540;9.268;2022-12-10T05:21:40;56.90;;;32.67;;
2644;SDS011;15377;48.540;9.268;2022-12-10T05:24:24;59.95;;;32.58;;
2644;SDS011;15377;48.540;9.268;2022-12-10T05:26:49;56.30;;;30.47;;
2644;SDS011;15377;48.540;9.268;2022-12-10T05:29:16;52.00;;;30.67;;
2644;SDS011;15377;48.540;9.268;2022-12-10T05:31:42;55.00;;;30.37;;
2644;SDS011;15377;48.540;9.268;2022-12-10T05:34:09;56.33;;;31.33;;
2644;SDS011;15377;48.540;9.268;2022-12-10T05:36:35;51.20;;;32.10;;
2644;SDS011;15377;48.540;9.268;2022-12-10T05:39:01;53.27;;;30.70;;
2644;SDS011;15377;48.540;9.268;2022-12-10T05:41:28;55.35;;;31.15;;
2644;SDS011;15377;48.540;9.268;2022-12-10T05:43:55;52.20;;;31.90;;
2644;SDS011;15377;48.540;9.268;2022-12-10T05:46:22;53.65;;;31.17;;
2644;SDS011;15377;48.540;9.268;2022-12-10T05:48:52;61.33;;;33.78;;
2644;SDS011;15377;48.540;9.268;2022-12-10T05:51:19;51.23;;;29.83;;
2644;SDS011;15377;48.540;9.268;2022-12-10T05:53:47;57.85;;;31.60;;
2644;SDS011;15377;48.540;9.268;2022-12-10T05:56:17;59.63;;;32.83;;
2644;SDS011;15377;48.540;9.268;2022-12-10T05:58:43;61.92;;;31.98;;
2644;SDS011;15377;48.540;9.268;2022-12-10T06:01:23;56.10;;;32.28;;
2644;SDS011;15377;48.540;9.268;2022-12-10T06:03:50;61.17;;;31.17;;
2644;SDS011;15377;48.540;9.268;2022-12-10T06:06:21;56.72;;;30.60;;
2644;SDS011;15377;48.540;9.268;2022-12-10T06:08:47;54.58;;;32.03;;
2644;SDS011;15377;48.540;9.268;2022-12-10T06:11:13;54.97;;;31.10;;
2644;SDS011;15377;48.540;9.268;2022-12-10T06:13:38;57.47;;;32.50;;
2644;SDS011;15377;48.540;9.268;2022-12-10T06:16:07;50.73;;;29.30;;
2644;SDS011;15377;48.540;9.268;2022-12-10T06:18:34;62.25;;;30.55;;
2644;SDS011;15377;48.540;9.268;2022-12-10T06:21:07;60.00;;;32.97;;
2644;SDS011;15377;48.540;9.268;2022-12-10T06:23:34;60.22;;;33.50;;
2644;SDS011;15377;48.540;9.268;2022-12-10T06:26:07;61.55;;;31.60;;
2644;SDS011;15377;48.540;9.268;2022-12-10T06:28:35;55.17;;;33.40;;
2644;SDS011;15377;48.540;9.268;2022-12-10T06:31:01;59.38;;;32.05;;
2644;SDS011;15377;48.540;9.268;2022-12-10T06:33:27;60.13;;;32.37;;
2644;SDS011;15377;48.540;9.268;2022-12-10T06:35:52;54.70;;;31.27;;
2644;SDS011;15377;48.540;9.268;2022-12-10T06:38:17;56.10;;;33.03;;
2644;SDS011;15377;48.540;9.268;2022-12-10T06:40:43;50.93;;;29.97;;
2644;SDS011;15377;48.540;9.268;2022-12-10T06:43:08;55.90;;;31.83;;
2644;SDS011;15377;48.540;9.268;2022-12-10T06:45:37;57.90;;;30.97;;
2644;SDS011;15377;48.540;9.268;2022-12-10T06:48:04;57.03;;;32.47;;
2644;SDS011;15377;48.540;9.268;2022-12-10T06:50:29;47.40;;;29.47;;
2644;SDS011;15377;48.540;9.268;2022-12-10T06:52:54;46.97;;;27.73;;
2644;SDS011;15377;48.540;9.268;2022-12-10T06:55:20;49.60;;;30.10;;
2644;SDS011;15377;48.540;9.268;2022-12-10T06:57:45;53.40;;;29.20;;
2644;SDS011;15377;48.540;9.268;2022-12-10T07:00:10;46.67;;;29.00;;
2644;SDS011;15377;48.540;9.268;2022-12-10T07:02:36;46.17;;;29.45;;
2644;SDS011;15377;48.540;9.268;2022-12-10T07:05:02;44.47;;;27.40;;
2644;SDS011;15377;48.540;9.268;2022-12-10T07:07:28;54.57;;;30.40;;
2644;SDS011;15377;48.540;9.268;2022-12-10T07:09:53;48.50;;;28.30;;
2644;SDS011;15377;48.540;9.268;2022-12-10T07:12:18;49.57;;;29.20;;
2644;SDS011;15377;48.540;9.268;2022-12-10T07:14:44;47.30;;;29.73;;
2644;SDS011;15377;48.540;9.268;2022-12-10T07:17:09;47.50;;;29.10;;
2644;SDS011;15377;48.540;9.268;2022-12-10T07:19:34;48.37;;;27.70;;
2644;SDS011;15377;48.540;9.268;2022-12-10T07:22:00;52.70;;;31.20;;
2644;SDS011;15377;48.540;9.268;2022-12-10T07:24:25;56.07;;;30.90;;
2644;SDS011;15377;48.540;9.268;2022-12-10T07:26:50;53.27;;;31.73;;
2644;SDS011;15377;48.540;9.268;2022-12-10T07:29:18;54.83;;;30.38;;
2644;SDS011;15377;48.540;9.268;2022-12-10T07:31:45;52.25;;;31.42;;
2644;SDS011;15377;48.540;9.268;2022-12-10T07:34:11;78.10;;;44.90;;
2644;SDS011;15377;48.540;9.268;2022-12-10T07:36:37;54.88;;;30.60;;
2644;SDS011;15377;48.540;9.268;2022-12-10T07:39:04;50.87;;;28.43;;
2644;SDS011;15377;48.540;9.268;2022-12-10T07:41:31;50.42;;;29.60;;
2644;SDS011;15377;48.540;9.268;2022-12-10T07:43:56;52.10;;;30.30;;
2644;SDS011;15377;48.540;9.268;2022-12-10T07:46:23;54.13;;;28.63;;
2644;SDS011;15377;48.540;9.268;2022-12-10T07:48:54;49.05;;;30.52;;
2644;SDS011;15377;48.540;9.268;2022-12-10T07:51:20;46.97;;;29.40;;
2644;SDS011;15377;48.540;9.268;2022-12-10T07:53:46;50.30;;;28.48;;
2644;SDS011;15377;48.540;9.268;2022-12-10T07:56:12;45.05;;;31.02;;
2644;SDS011;15377;48.540;9.268;2022-12-10T07:58:40;46.20;;;28.48;;
2644;SDS011;15377;48.540;9.268;2022-12-10T08:01:08;52.95;;;29.02;;
2644;SDS011;15377;48.540;9.268;2022-12-10T08:03:35;49.85;;;29.88;;
2644;SDS011;15377;48.540;9.268;2022-12-10T08:06:01;51.80;;;30.53;;
2644;SDS011;15377;48.540;9.268;2022-12-10T08:08:32;45.38;;;27.65;;
2644;SDS011;15377;48.540;9.268;2022-12-10T08:10:59;49.88;;;26.85;;
2644;SDS011;15377;48.540;9.268;2022-12-10T08:13:25;43.53;;;27.23;;
2644;SDS011;15377;48.540;9.268;2022-12-10T08:15:51;63.43;;;33.83;;
2644;SDS011;15377;48.540;9.268;2022-12-10T08:18:16;43.97;;;28.17;;
2644;SDS011;15377;48.540;9.268;2022-12-10T08:20:41;45.50;;;28.20;;
2644;SDS011;15377;48.540;9.268;2022-12-10T08:23:07;43.67;;;28.27;;
2644;SDS011;15377;48.540;9.268;2022-12-10T08:25:32;43.50;;;27.00;;
2644;SDS011;15377;48.540;9.268;2022-12-10T08:27:57;43.93;;;26.27;;
2644;SDS011;15377;48.540;9.268;2022-12-10T08:30:24;44.45;;;27.77;;
2644;SDS011;15377;48.540;9.268;2022-12-10T08:32:50;47.70;;;28.47;;
2644;SDS011;15377;48.540;9.268;2022-12-10T08:35:15;43.97;;;25.53;;
2644;SDS011;15377;48.540;9.268;2022-12-10T08:37:41;49.23;;;29.60;;
2644;SDS011;15377;48.540;9.268;2022-12-10T08:40:07;46.95;;;26.73;;
2644;SDS011;15377;48.540;9.268;2022-12-10T08:42:32;45.80;;;28.13;;
2644;SDS011;15377;48.540;9.268;2022-12-10T08:44:58;48.13;;;29.10;;
2644;SDS011;15377;48.540;9.268;2022-12-10T08:47:23;46.83;;;27.73;;
2644;SDS011;15377;48.540;9.268;2022-12-10T08:49:49;46.60;;;27.13;;
2644;SDS011;15377;48.540;9.268;2022-12-10T08:52:14;44.80;;;28.70;;
2644;SDS011;15377;48.540;9.268;2022-12-10T08:54:40;56.03;;;30.00;;
2644;SDS011;15377;48.540;9.268;2022-12-10T08:57:05;46.17;;;27.17;;
2644;SDS011;15377;48.540;9.268;2022-12-10T08:59:30;46.80;;;27.00;;
2644;SDS011;15377;48.540;9.268;2022-12-10T09:01:56;39.23;;;24.97;;
2644;SDS011;15377;48.540;9.268;2022-12-10T09:04:21;46.63;;;27.07;;
2644;SDS011;15377;48.540;9.268;2022-12-10T09:06:46;42.33;;;27.20;;
2644;SDS011;15377;48.540;9.268;2022-12-10T09:09:12;39.20;;;25.60;;
2644;SDS011;15377;48.540;9.268;2022-12-10T09:11:37;35.83;;;24.27;;
2644;SDS011;15377;48.540;9.268;2022-12-10T09:14:03;40.00;;;24.80;;
2644;SDS011;15377;48.540;9.268;2022-12-10T09:16:35;38.80;;;24.57;;
2644;SDS011;15377;48.540;9.268;2022-12-10T09:19:02;36.30;;;23.88;;
2644;SDS011;15377;48.540;9.268;2022-12-10T09:21:29;39.63;;;23.88;;
2644;SDS011;15377;48.540;9.268;2022-12-10T09:23:56;40.53;;;24.25;;
2644;SDS011;15377;48.540;9.268;2022-12-10T09:26:22;41.28;;;24.63;;
2644;SDS011;15377;48.540;9.268;2022-12-10T09:28:48;40.57;;;24.87;;
2644;SDS011;15377;48.540;9.268;2022-12-10T09:31:14;41.30;;;24.83;;
2644;SDS011;15377;48.540;9.268;2022-12-10T09:33:41;36.42;;;24.80;;
2644;SDS011;15377;48.540;9.268;2022-12-10T09:36:08;37.75;;;24.75;;
2644;SDS011;15377;48.540;9.268;2022-12-10T09:38:36;140.48;;;73.60;;
2644;SDS011;15377;48.540;9.268;2022-12-10T09:43:40;40.63;;;27.20;;
2644;SDS011;15377;48.540;9.268;2022-12-10T09:46:15;44.95;;;26.13;;
2644;SDS011;15377;48.540;9.268;2022-12-10T09:48:59;45.40;;;26.90;;
2644;SDS011;15377;48.540;9.268;2022-12-10T09:51:36;31.65;;;21.75;;
2644;SDS011;15377;48.540;9.268;2022-12-10T09:54:04;39.08;;;24.60;;
2644;SDS011;15377;48.540;9.268;2022-12-10T09:56:42;40.35;;;26.08;;
2644;SDS011;15377;48.540;9.268;2022-12-10T09:59:15;219.18;;;100.22;;
2644;SDS011;15377;48.540;9.268;2022-12-10T10:01:45;72.18;;;38.83;;
2644;SDS011;15377;48.540;9.268;2022-12-10T10:04:15;45.65;;;27.45;;
2644;SDS011;15377;48.540;9.268;2022-12-10T10:06:41;39.10;;;24.10;;
2644;SDS011;15377;48.540;9.268;2022-12-10T10:09:07;38.10;;;24.33;;
2644;SDS011;15377;48.540;9.268;2022-12-10T10:11:37;34.28;;;23.65;;
2644;SDS011;15377;48.540;9.268;2022-12-10T10:14:10;35.50;;;23.57;;
2644;SDS011;15377;48.540;9.268;2022-12-10T10:19:05;36.80;;;22.20;;
2644;SDS011;15377;48.540;9.268;2022-12-10T10:21:42;38.38;;;23.95;;
2644;SDS011;15377;48.540;9.268;2022-12-10T10:24:13;41.28;;;25.48;;
2644;SDS011;15377;48.540;9.268;2022-12-10T10:26:42;39.55;;;23.02;;
2644;SDS011;15377;48.540;9.268;2022-12-10T10:29:08;35.03;;;21.90;;
2644;SDS011;15377;48.540;9.268;2022-12-10T10:31:38;37.88;;;22.15;;
2644;SDS011;15377;48.540;9.268;2022-12-10T10:34:06;35.53;;;22.95;;
2644;SDS011;15377;48.540;9.268;2022-12-10T10:36:43;33.10;;;22.42;;
2644;SDS011;15377;48.540;9.268;2022-12-10T10:39:11;38.20;;;24.27;;
2644;SDS011;15377;48.540;9.268;2022-12-10T10:41:53;30.90;;;21.83;;
2644;SDS011;15377;48.540;9.268;2022-12-10T10:44:34;38.25;;;23.95;;
2644;SDS011;15377;48.540;9.268;2022-12-10T10:47:01;33.60;;;21.95;;
2644;SDS011;15377;48.540;9.268;2022-12-10T10:49:28;38.00;;;22.42;;
2644;SDS011;15377;48.540;9.268;2022-12-10T10:52:00;29.58;;;20.60;;
2644;SDS011;15377;48.540;9.268;2022-12-10T10:54:35;38.92;;;22.42;;
2644;SDS011;15377;48.540;9.268;2022-12-10T10:57:08;35.13;;;19.67;;
2644;SDS011;15377;48.540;9.268;2022-12-10T10:59:40;35.20;;;21.02;;
2644;SDS011;15377;48.540;9.268;2022-12-10T11:05:04;31.23;;;21.05;;
2644;SDS011;15377;48.540;9.268;2022-12-10T11:07:33;32.08;;;19.75;;
2644;SDS011;15377;48.540;9.268;2022-12-10T11:10:00;35.20;;;21.50;;
2644;SDS011;15377;48.540;9.268;2022-12-10T11:12:29;31.00;;;20.30;;
2644;SDS011;15377;48.540;9.268;2022-12-10T11:14:59;29.77;;;20.88;;
2644;SDS011;15377;48.540;9.268;2022-12-10T11:17:25;33.80;;;21.27;;
2644;SDS011;15377;48.540;9.268;2022-12-10T11:19:56;28.80;;;18.50;;
2644;SDS011;15377;48.540;9.268;2022-12-10T11:22:53;34.33;;;21.52;;
2644;SDS011;15377;48.540;9.268;2022-12-10T11:31:32;31.02;;;20.00;;
2644;SDS011;15377;48.540;9.268;2022-12-10T11:34:41;33.15;;;21.80;;
2644;SDS011;15377;48.540;9.268;2022-12-10T11:42:42;32.75;;;20.50;;
2644;SDS011;15377;48.540;9.268;2022-12-10T11:50:50;30.98;;;19.63;;
2644;SDS011;15377;48.540;9.268;2022-12-10T12:04:22;31.67;;;19.80;;
2644;SDS011;15377;48.540;9.268;2022-12-10T12:06:58;30.17;;;18.90;;
2644;SDS011;15377;48.540;9.268;2022-12-10T12:12:40;29.98;;;18.90;;
2644;SDS011;15377;48.540;9.268;2022-12-10T12:15:16;26.70;;;17.08;;
2644;SDS011;15377;48.540;9.268;2022-12-10T12:17:54;32.33;;;18.17;;
2644;SDS011;15377;48.540;9.268;2022-12-10T12:23:03;27.33;;;18.02;;
2644;SDS011;15377;48.540;9.268;2022-12-10T12:25:40;28.92;;;19.40;;
2644;SDS011;15377;48.540;9.268;2022-12-10T12:28:20;27.63;;;18.20;;
2644;SDS011;15377;48.540;9.268;2022-12-10T12:30:51;26.52;;;16.88;;
2644;SDS011;15377;48.540;9.268;2022-12-10T12:36:16;25.35;;;16.90;;
2644;SDS011;15377;48.540;9.268;2022-12-10T12:52:58;31.50;;;19.77;;
2644;SDS011;15377;48.540;9.268;2022-12-10T12:59:15;32.28;;;19.13;;
2644;SDS011;15377;48.540;9.268;2022-12-10T13:01:19;30.70;;;18.27;;
2644;SDS011;15377;48.540;9.268;2022-12-10T13:03:53;28.75;;;18.63;;
2644;SDS011;15377;48.540;9.268;2022-12-10T13:06:26;28.48;;;16.58;;
2644;SDS011;15377;48.540;9.268;2022-12-10T13:11:37;26.08;;;17.98;;
2644;SDS011;15377;48.540;9.268;2022-12-10T13:14:28;26.27;;;15.63;;
2644;SDS011;15377;48.540;9.268;2022-12-10T13:17:33;26.88;;;17.35;;
2644;SDS011;15377;48.540;9.268;2022-12-10T13:20:39;31.27;;;18.17;;
2644;SDS011;15377;48.540;9.268;2022-12-10T13:23:01;25.70;;;18.10;;
2644;SDS011;15377;48.540;9.268;2022-12-10T13:36:37;27.80;;;17.73;;
2644;SDS011;15377;48.540;9.268;2022-12-10T13:39:22;26.67;;;15.75;;
2644;SDS011;15377;48.540;9.268;2022-12-10T13:50:03;27.55;;;18.38;;
2644;SDS011;15377;48.540;9.268;2022-12-10T13:52:51;37.33;;;24.00;;
2644;SDS011;15377;48.540;9.268;2022-12-10T13:55:22;28.05;;;16.58;;
2644;SDS011;15377;48.540;9.268;2022-12-10T13:58:02;31.27;;;19.83;;
2644;SDS011;15377;48.540;9.268;2022-12-10T14:03:40;27.73;;;18.13;;
2644;SDS011;15377;48.540;9.268;2022-12-10T14:09:31;30.98;;;16.35;;
2644;SDS011;15377;48.540;9.268;2022-12-10T14:12:16;28.35;;;19.33;;
2644;SDS011;15377;48.540;9.268;2022-12-10T14:14:41;29.20;;;19.10;;
2644;SDS011;15377;48.540;9.268;2022-12-10T14:17:12;27.00;;;18.08;;
2644;SDS011;15377;48.540;9.268;2022-12-10T14:19:41;25.60;;;17.88;;
2644;SDS011;15377;48.540;9.268;2022-12-10T14:22:08;73.13;;;42.65;;
2644;SDS011;15377;48.540;9.268;2022-12-10T14:24:41;44.55;;;29.58;;
2644;SDS011;15377;48.540;9.268;2022-12-10T14:27:12;40.30;;;25.73;;
2644;SDS011;15377;48.540;9.268;2022-12-10T14:29:43;31.65;;;20.83;;
2644;SDS011;15377;48.540;9.268;2022-12-10T14:32:14;26.45;;;18.77;;
2644;SDS011;15377;48.540;9.268;2022-12-10T14:34:42;26.75;;;16.90;;
2644;SDS011;15377;48.540;9.268;2022-12-10T14:37:13;30.15;;;17.95;;
2644;SDS011;15377;48.540;9.268;2022-12-10T14:39:39;32.55;;;15.35;;
2644;SDS011;15377;48.540;9.268;2022-12-10T14:42:05;45.47;;;30.03;;
2644;SDS011;15377;48.540;9.268;2022-12-10T14:44:34;26.63;;;17.90;;
2644;SDS011;15377;48.540;9.268;2022-12-10T14:49:38;26.98;;;17.58;;
2644;SDS011;15377;48.540;9.268;2022-12-10T14:52:20;24.02;;;15.65;;
2644;SDS011;15377;48.540;9.268;2022-12-10T14:54:47;28.40;;;18.63;;
2644;SDS011;15377;48.540;9.268;2022-12-10T14:57:18;25.90;;;17.43;;
2644;SDS011;15377;48.540;9.268;2022-12-10T15:02:43;27.70;;;17.08;;
2644;SDS011;15377;48.540;9.268;2022-12-10T15:07:52;30.88;;;18.77;;
2644;SDS011;15377;48.540;9.268;2022-12-10T15:10:23;26.08;;;17.17;;
2644;SDS011;15377;48.540;9.268;2022-12-10T15:12:52;27.85;;;16.90;;
2644;SDS011;15377;48.540;9.268;2022-12-10T15:15:23;31.38;;;17.63;;
2644;SDS011;15377;48.540;9.268;2022-12-10T15:20:36;29.65;;;17.83;;
2644;SDS011;15377;48.540;9.268;2022-12-10T15:28:26;26.67;;;18.17;;
2644;SDS011;15377;48.540;9.268;2022-12-10T15:30:54;29.88;;;19.02;;
2644;SDS011;15377;48.540;9.268;2022-12-10T15:33:31;29.55;;;17.85;;
2644;SDS011;15377;48.540;9.268;2022-12-10T15:36:02;36.00;;;19.50;;
2644;SDS011;15377;48.540;9.268;2022-12-10T15:38:28;31.37;;;19.67;;
2644;SDS011;15377;48.540;9.268;2022-12-10T15:40:57;30.80;;;18.67;;
2644;SDS011;15377;48.540;9.268;2022-12-10T15:43:29;32.75;;;19.33;;
2644;SDS011;15377;48.540;9.268;2022-12-10T15:45:55;29.13;;;18.40;;
2644;SDS011;15377;48.540;9.268;2022-12-10T15:48:22;33.60;;;19.17;;
2644;SDS011;15377;48.540;9.268;2022-12-10T15:50:49;34.13;;;20.90;;
2644;SDS011;15377;48.540;9.268;2022-12-10T15:53:16;31.02;;;18.90;;
2644;SDS011;15377;48.540;9.268;2022-12-10T15:55:49;36.22;;;19.95;;
2644;SDS011;15377;48.540;9.268;2022-12-10T15:58:14;36.00;;;20.10;;
2644;SDS011;15377;48.540;9.268;2022-12-10T16:00:40;35.20;;;20.37;;
2644;SDS011;15377;48.540;9.268;2022-12-10T16:03:09;33.85;;;19.27;;
2644;SDS011;15377;48.540;9.268;2022-12-10T16:05:36;33.85;;;19.10;;
2644;SDS011;15377;48.540;9.268;2022-12-10T16:10:34;36.35;;;19.00;;
2644;SDS011;15377;48.540;9.268;2022-12-10T16:13:01;32.97;;;20.03;;
2644;SDS011;15377;48.540;9.268;2022-12-10T16:15:33;34.65;;;20.27;;
2644;SDS011;15377;48.540;9.268;2022-12-10T16:18:03;31.75;;;20.20;;
2644;SDS011;15377;48.540;9.268;2022-12-10T16:20:30;32.28;;;19.40;;
2644;SDS011;15377;48.540;9.268;2022-12-10T16:22:57;33.92;;;19.60;;
2644;SDS011;15377;48.540;9.268;2022-12-10T16:25:24;37.72;;;18.98;;
2644;SDS011;15377;48.540;9.268;2022-12-10T16:27:51;35.10;;;19.23;;
2644;SDS011;15377;48.540;9.268;2022-12-10T16:30:21;32.93;;;20.20;;
2644;SDS011;15377;48.540;9.268;2022-12-10T16:32:50;30.10;;;18.60;;
2644;SDS011;15377;48.540;9.268;2022-12-10T16:35:16;28.40;;;17.25;;
2644;SDS011;15377;48.540;9.268;2022-12-10T16:37:45;29.10;;;15.82;;
2644;SDS011;15377;48.540;9.268;2022-12-10T16:40:14;35.33;;;19.13;;
2644;SDS011;15377;48.540;9.268;2022-12-10T16:42:40;30.40;;;17.88;;
2644;SDS011;15377;48.540;9.268;2022-12-10T16:47:42;28.10;;;16.98;;
2644;SDS011;15377;48.540;9.268;2022-12-10T16:50:07;29.20;;;17.52;;
2644;SDS011;15377;48.540;9.268;2022-12-10T16:52:33;29.43;;;17.33;;
2644;SDS011;15377;48.540;9.268;2022-12-10T16:54:58;28.13;;;16.87;;
2644;SDS011;15377;48.540;9.268;2022-12-10T16:57:24;29.43;;;16.00;;
2644;SDS011;15377;48.540;9.268;2022-12-10T16:59:49;34.10;;;19.70;;
2644;SDS011;15377;48.540;9.268;2022-12-10T17:02:15;40.70;;;23.83;;